sensor_id;sensor_type;location;lat;lon;timestamp;P1;durP1;ratioP1;P2;durP2;ratioP2
8893;SDS011;4483;48.622;9.230;2022-08-21T00:00:23;2.83;;;1.43;;
8893;SDS011;4483;48.622;9.230;2022-08-21T00:02:52;1.53;;;1.43;;
8893;SDS011;4483;48.622;9.230;2022-08-21T00:05:22;3.93;;;1.70;;
8893;SDS011;4483;48.622;9.230;2022-08-21T00:07:50;2.80;;;1.50;;
8893;SDS011;4483;48.622;9.230;2022-08-21T00:10:18;1.67;;;1.43;;
8893;SDS011;4483;48.622;9.230;2022-08-21T00:12:45;2.60;;;1.60;;
8893;SDS011;4483;48.622;9.230;2022-08-21T00:15:13;4.33;;;1.60;;
8893;SDS011;4483;48.622;9.230;2022-08-21T00:17:42;4.33;;;1.80;;
8893;SDS011;4483;48.622;9.230;2022-08-21T00:20:09;3.03;;;2.07;;
8893;SDS011;4483;48.622;9.230;2022-08-21T00:22:38;3.13;;;1.67;;
8893;SDS011;4483;48.622;9.230;2022-08-21T00:25:06;1.93;;;1.60;;
8893;SDS011;4483;48.622;9.230;2022-08-21T00:27:35;5.13;;;1.73;;
8893;SDS011;4483;48.622;9.230;2022-08-21T00:30:03;2.37;;;1.60;;
8893;SDS011;4483;48.622;9.230;2022-08-21T00:32:31;3.60;;;1.57;;
8893;SDS011;4483;48.622;9.230;2022-08-21T00:34:58;3.13;;;1.60;;
8893;SDS011;4483;48.622;9.230;2022-08-21T00:37:25;4.07;;;1.80;;
8893;SDS011;4483;48.622;9.230;2022-08-21T00:39:52;1.97;;;1.77;;
8893;SDS011;4483;48.622;9.230;2022-08-21T00:42:18;1.97;;;1.70;;
8893;SDS011;4483;48.622;9.230;2022-08-21T00:44:47;2.67;;;1.90;;
8893;SDS011;4483;48.622;9.230;2022-08-21T00:47:15;7.40;;;2.00;;
8893;SDS011;4483;48.622;9.230;2022-08-21T00:49:42;1.90;;;1.60;;
8893;SDS011;4483;48.622;9.230;2022-08-21T00:52:11;3.57;;;1.67;;
8893;SDS011;4483;48.622;9.230;2022-08-21T00:54:41;1.70;;;1.60;;
8893;SDS011;4483;48.622;9.230;2022-08-21T00:57:09;2.13;;;1.63;;
8893;SDS011;4483;48.622;9.230;2022-08-21T00:59:39;1.60;;;1.50;;
8893;SDS011;4483;48.622;9.230;2022-08-21T01:02:09;1.90;;;1.60;;
8893;SDS011;4483;48.622;9.230;2022-08-21T01:04:36;1.90;;;1.80;;
8893;SDS011;4483;48.622;9.230;2022-08-21T01:07:04;4.03;;;1.70;;
8893;SDS011;4483;48.622;9.230;2022-08-21T01:09:31;1.70;;;1.60;;
8893;SDS011;4483;48.622;9.230;2022-08-21T01:11:58;1.93;;;1.80;;
8893;SDS011;4483;48.622;9.230;2022-08-21T01:14:26;5.83;;;1.63;;
8893;SDS011;4483;48.622;9.230;2022-08-21T01:16:53;1.93;;;1.63;;
8893;SDS011;4483;48.622;9.230;2022-08-21T01:19:23;1.53;;;1.50;;
8893;SDS011;4483;48.622;9.230;2022-08-21T01:21:53;2.83;;;1.80;;
8893;SDS011;4483;48.622;9.230;2022-08-21T01:24:20;1.97;;;1.77;;
8893;SDS011;4483;48.622;9.230;2022-08-21T01:26:48;2.07;;;1.60;;
8893;SDS011;4483;48.622;9.230;2022-08-21T01:29:20;4.20;;;1.80;;
8893;SDS011;4483;48.622;9.230;2022-08-21T01:31:55;2.40;;;1.73;;
8893;SDS011;4483;48.622;9.230;2022-08-21T01:34:22;2.00;;;1.90;;
8893;SDS011;4483;48.622;9.230;2022-08-21T01:36:48;2.30;;;1.83;;
8893;SDS011;4483;48.622;9.230;2022-08-21T01:39:16;3.23;;;1.83;;
8893;SDS011;4483;48.622;9.230;2022-08-21T01:41:43;1.53;;;1.53;;
8893;SDS011;4483;48.622;9.230;2022-08-21T01:44:10;2.33;;;1.93;;
8893;SDS011;4483;48.622;9.230;2022-08-21T01:46:37;2.07;;;1.87;;
8893;SDS011;4483;48.622;9.230;2022-08-21T01:49:04;3.13;;;1.80;;
8893;SDS011;4483;48.622;9.230;2022-08-21T01:51:31;3.10;;;1.90;;
8893;SDS011;4483;48.622;9.230;2022-08-21T01:53:58;1.70;;;1.60;;
8893;SDS011;4483;48.622;9.230;2022-08-21T01:56:26;3.70;;;1.90;;
8893;SDS011;4483;48.622;9.230;2022-08-21T01:58:53;2.10;;;1.80;;
8893;SDS011;4483;48.622;9.230;2022-08-21T02:01:20;2.57;;;2.37;;
8893;SDS011;4483;48.622;9.230;2022-08-21T02:03:47;2.20;;;2.00;;
8893;SDS011;4483;48.622;9.230;2022-08-21T02:06:14;2.60;;;1.80;;
8893;SDS011;4483;48.622;9.230;2022-08-21T02:08:42;2.63;;;1.87;;
8893;SDS011;4483;48.622;9.230;2022-08-21T02:11:09;1.60;;;1.50;;
8893;SDS011;4483;48.622;9.230;2022-08-21T02:13:38;1.63;;;1.53;;
8893;SDS011;4483;48.622;9.230;2022-08-21T02:16:05;4.20;;;1.90;;
8893;SDS011;4483;48.622;9.230;2022-08-21T02:18:32;7.27;;;1.90;;
8893;SDS011;4483;48.622;9.230;2022-08-21T02:20:59;2.97;;;2.10;;
8893;SDS011;4483;48.622;9.230;2022-08-21T02:23:27;4.33;;;1.83;;
8893;SDS011;4483;48.622;9.230;2022-08-21T02:25:53;2.50;;;1.57;;
8893;SDS011;4483;48.622;9.230;2022-08-21T02:28:20;2.40;;;1.60;;
8893;SDS011;4483;48.622;9.230;2022-08-21T02:30:49;3.30;;;1.80;;
8893;SDS011;4483;48.622;9.230;2022-08-21T02:33:16;1.93;;;1.70;;
8893;SDS011;4483;48.622;9.230;2022-08-21T02:35:44;2.60;;;1.73;;
8893;SDS011;4483;48.622;9.230;2022-08-21T02:38:13;4.47;;;1.80;;
8893;SDS011;4483;48.622;9.230;2022-08-21T02:40:42;6.13;;;1.97;;
8893;SDS011;4483;48.622;9.230;2022-08-21T02:43:12;2.00;;;1.90;;
8893;SDS011;4483;48.622;9.230;2022-08-21T02:45:40;1.97;;;1.87;;
8893;SDS011;4483;48.622;9.230;2022-08-21T02:48:10;1.70;;;1.60;;
8893;SDS011;4483;48.622;9.230;2022-08-21T02:50:38;2.37;;;1.90;;
8893;SDS011;4483;48.622;9.230;2022-08-21T02:53:08;3.27;;;1.80;;
8893;SDS011;4483;48.622;9.230;2022-08-21T02:55:38;2.70;;;1.73;;
8893;SDS011;4483;48.622;9.230;2022-08-21T02:58:06;1.80;;;1.70;;
8893;SDS011;4483;48.622;9.230;2022-08-21T03:00:34;5.30;;;2.23;;
8893;SDS011;4483;48.622;9.230;2022-08-21T03:03:02;2.97;;;1.40;;
8893;SDS011;4483;48.622;9.230;2022-08-21T03:05:32;3.73;;;1.80;;
8893;SDS011;4483;48.622;9.230;2022-08-21T03:08:00;1.70;;;1.60;;
8893;SDS011;4483;48.622;9.230;2022-08-21T03:10:28;2.80;;;1.60;;
8893;SDS011;4483;48.622;9.230;2022-08-21T03:12:56;1.87;;;1.70;;
8893;SDS011;4483;48.622;9.230;2022-08-21T03:15:23;2.63;;;1.57;;
8893;SDS011;4483;48.622;9.230;2022-08-21T03:17:50;2.17;;;1.70;;
8893;SDS011;4483;48.622;9.230;2022-08-21T03:20:20;3.13;;;1.90;;
8893;SDS011;4483;48.622;9.230;2022-08-21T03:22:50;1.80;;;1.67;;
8893;SDS011;4483;48.622;9.230;2022-08-21T03:25:18;1.70;;;1.60;;
8893;SDS011;4483;48.622;9.230;2022-08-21T03:27:45;2.20;;;2.00;;
8893;SDS011;4483;48.622;9.230;2022-08-21T03:30:12;2.80;;;1.60;;
8893;SDS011;4483;48.622;9.230;2022-08-21T03:32:39;1.70;;;1.60;;
8893;SDS011;4483;48.622;9.230;2022-08-21T03:35:06;3.83;;;1.93;;
8893;SDS011;4483;48.622;9.230;2022-08-21T03:37:34;3.07;;;1.83;;
8893;SDS011;4483;48.622;9.230;2022-08-21T03:40:03;1.87;;;1.60;;
8893;SDS011;4483;48.622;9.230;2022-08-21T03:42:30;1.70;;;1.60;;
8893;SDS011;4483;48.622;9.230;2022-08-21T03:44:56;1.67;;;1.57;;
8893;SDS011;4483;48.622;9.230;2022-08-21T03:47:23;2.07;;;1.73;;
8893;SDS011;4483;48.622;9.230;2022-08-21T03:49:50;3.77;;;1.70;;
8893;SDS011;4483;48.622;9.230;2022-08-21T03:52:17;1.73;;;1.50;;
8893;SDS011;4483;48.622;9.230;2022-08-21T03:54:44;2.43;;;1.70;;
8893;SDS011;4483;48.622;9.230;2022-08-21T03:57:13;1.80;;;1.70;;
8893;SDS011;4483;48.622;9.230;2022-08-21T03:59:40;2.43;;;1.50;;
8893;SDS011;4483;48.622;9.230;2022-08-21T04:02:08;1.70;;;1.60;;
8893;SDS011;4483;48.622;9.230;2022-08-21T04:04:35;2.73;;;1.63;;
8893;SDS011;4483;48.622;9.230;2022-08-21T04:07:03;4.67;;;1.80;;
8893;SDS011;4483;48.622;9.230;2022-08-21T04:09:30;1.63;;;1.60;;
8893;SDS011;4483;48.622;9.230;2022-08-21T04:11:57;1.87;;;1.70;;
8893;SDS011;4483;48.622;9.230;2022-08-21T04:14:26;2.13;;;1.63;;
8893;SDS011;4483;48.622;9.230;2022-08-21T04:16:53;3.13;;;1.70;;
8893;SDS011;4483;48.622;9.230;2022-08-21T04:19:19;2.30;;;1.90;;
8893;SDS011;4483;48.622;9.230;2022-08-21T04:21:46;3.07;;;1.30;;
8893;SDS011;4483;48.622;9.230;2022-08-21T04:24:14;2.10;;;1.70;;
8893;SDS011;4483;48.622;9.230;2022-08-21T04:26:41;1.80;;;1.40;;
8893;SDS011;4483;48.622;9.230;2022-08-21T04:29:08;1.63;;;1.53;;
8893;SDS011;4483;48.622;9.230;2022-08-21T04:31:36;1.87;;;1.77;;
8893;SDS011;4483;48.622;9.230;2022-08-21T04:34:03;1.67;;;1.57;;
8893;SDS011;4483;48.622;9.230;2022-08-21T04:36:30;1.73;;;1.63;;
8893;SDS011;4483;48.622;9.230;2022-08-21T04:38:57;3.00;;;1.53;;
8893;SDS011;4483;48.622;9.230;2022-08-21T04:41:24;2.33;;;1.57;;
8893;SDS011;4483;48.622;9.230;2022-08-21T04:43:51;5.60;;;1.77;;
8893;SDS011;4483;48.622;9.230;2022-08-21T04:46:20;1.40;;;1.40;;
8893;SDS011;4483;48.622;9.230;2022-08-21T04:48:49;1.80;;;1.70;;
8893;SDS011;4483;48.622;9.230;2022-08-21T04:51:17;1.70;;;1.60;;
8893;SDS011;4483;48.622;9.230;2022-08-21T04:53:49;5.03;;;1.90;;
8893;SDS011;4483;48.622;9.230;2022-08-21T04:56:18;1.70;;;1.60;;
8893;SDS011;4483;48.622;9.230;2022-08-21T04:58:48;2.33;;;1.50;;
8893;SDS011;4483;48.622;9.230;2022-08-21T05:01:19;1.70;;;1.60;;
8893;SDS011;4483;48.622;9.230;2022-08-21T05:03:50;2.63;;;1.80;;
8893;SDS011;4483;48.622;9.230;2022-08-21T05:06:20;1.80;;;1.70;;
8893;SDS011;4483;48.622;9.230;2022-08-21T05:08:48;5.40;;;1.70;;
8893;SDS011;4483;48.622;9.230;2022-08-21T05:11:16;1.67;;;1.57;;
8893;SDS011;4483;48.622;9.230;2022-08-21T05:13:44;3.20;;;1.70;;
8893;SDS011;4483;48.622;9.230;2022-08-21T05:16:10;3.63;;;1.87;;
8893;SDS011;4483;48.622;9.230;2022-08-21T05:18:37;1.90;;;1.70;;
8893;SDS011;4483;48.622;9.230;2022-08-21T05:21:05;2.40;;;1.80;;
8893;SDS011;4483;48.622;9.230;2022-08-21T05:23:32;2.10;;;1.70;;
8893;SDS011;4483;48.622;9.230;2022-08-21T05:25:59;1.80;;;1.63;;
8893;SDS011;4483;48.622;9.230;2022-08-21T05:28:27;1.87;;;1.70;;
8893;SDS011;4483;48.622;9.230;2022-08-21T05:30:53;2.20;;;2.00;;
8893;SDS011;4483;48.622;9.230;2022-08-21T05:33:20;1.87;;;1.77;;
8893;SDS011;4483;48.622;9.230;2022-08-21T05:35:49;7.30;;;2.27;;
8893;SDS011;4483;48.622;9.230;2022-08-21T05:38:17;2.73;;;1.77;;
8893;SDS011;4483;48.622;9.230;2022-08-21T05:40:44;2.50;;;2.00;;
8893;SDS011;4483;48.622;9.230;2022-08-21T05:43:11;2.33;;;2.00;;
8893;SDS011;4483;48.622;9.230;2022-08-21T05:45:38;4.57;;;1.87;;
8893;SDS011;4483;48.622;9.230;2022-08-21T05:48:05;3.80;;;2.20;;
8893;SDS011;4483;48.622;9.230;2022-08-21T05:50:33;2.23;;;1.83;;
8893;SDS011;4483;48.622;9.230;2022-08-21T05:53:00;2.00;;;1.90;;
8893;SDS011;4483;48.622;9.230;2022-08-21T05:55:28;2.50;;;2.17;;
8893;SDS011;4483;48.622;9.230;2022-08-21T05:57:55;4.20;;;2.17;;
8893;SDS011;4483;48.622;9.230;2022-08-21T06:00:22;2.47;;;1.93;;
8893;SDS011;4483;48.622;9.230;2022-08-21T06:02:49;2.47;;;2.10;;
8893;SDS011;4483;48.622;9.230;2022-08-21T06:05:16;3.83;;;2.00;;
8893;SDS011;4483;48.622;9.230;2022-08-21T06:07:43;2.10;;;1.90;;
8893;SDS011;4483;48.622;9.230;2022-08-21T06:10:09;1.90;;;1.80;;
8893;SDS011;4483;48.622;9.230;2022-08-21T06:12:38;3.60;;;1.90;;
8893;SDS011;4483;48.622;9.230;2022-08-21T06:15:05;4.07;;;1.80;;
8893;SDS011;4483;48.622;9.230;2022-08-21T06:17:32;1.93;;;1.63;;
8893;SDS011;4483;48.622;9.230;2022-08-21T06:19:58;1.30;;;1.20;;
8893;SDS011;4483;48.622;9.230;2022-08-21T06:22:25;4.00;;;1.40;;
8893;SDS011;4483;48.622;9.230;2022-08-21T06:24:53;2.28;;;1.00;;
8893;SDS011;4483;48.622;9.230;2022-08-21T06:27:20;2.20;;;1.10;;
8893;SDS011;4483;48.622;9.230;2022-08-21T06:29:48;1.38;;;1.27;;
8893;SDS011;4483;48.622;9.230;2022-08-21T06:32:15;2.15;;;1.50;;
8893;SDS011;4483;48.622;9.230;2022-08-21T06:34:42;2.15;;;1.77;;
8893;SDS011;4483;48.622;9.230;2022-08-21T06:37:09;1.95;;;1.80;;
8893;SDS011;4483;48.622;9.230;2022-08-21T06:39:35;1.88;;;1.52;;
8893;SDS011;4483;48.622;9.230;2022-08-21T06:42:02;1.80;;;1.70;;
8893;SDS011;4483;48.622;9.230;2022-08-21T06:44:29;2.33;;;1.45;;
8893;SDS011;4483;48.622;9.230;2022-08-21T06:46:58;2.08;;;1.63;;
8893;SDS011;4483;48.622;9.230;2022-08-21T06:49:24;1.95;;;1.58;;
8893;SDS011;4483;48.622;9.230;2022-08-21T06:51:51;1.58;;;1.48;;
8893;SDS011;4483;48.622;9.230;2022-08-21T06:54:18;1.90;;;1.77;;
8893;SDS011;4483;48.622;9.230;2022-08-21T06:56:44;1.77;;;1.67;;
8893;SDS011;4483;48.622;9.230;2022-08-21T06:59:11;6.32;;;2.00;;
8893;SDS011;4483;48.622;9.230;2022-08-21T07:01:38;2.15;;;1.60;;
8893;SDS011;4483;48.622;9.230;2022-08-21T07:04:06;1.65;;;1.55;;
8893;SDS011;4483;48.622;9.230;2022-08-21T07:06:33;2.95;;;1.60;;
8893;SDS011;4483;48.622;9.230;2022-08-21T07:09:00;2.35;;;1.65;;
8893;SDS011;4483;48.622;9.230;2022-08-21T07:11:27;1.65;;;1.55;;
8893;SDS011;4483;48.622;9.230;2022-08-21T07:13:54;2.25;;;1.60;;
8893;SDS011;4483;48.622;9.230;2022-08-21T07:16:22;4.70;;;1.70;;
8893;SDS011;4483;48.622;9.230;2022-08-21T07:18:49;4.20;;;1.98;;
8893;SDS011;4483;48.622;9.230;2022-08-21T07:21:17;2.05;;;1.60;;
8893;SDS011;4483;48.622;9.230;2022-08-21T07:23:45;1.77;;;1.67;;
8893;SDS011;4483;48.622;9.230;2022-08-21T07:26:13;2.15;;;1.95;;
8893;SDS011;4483;48.622;9.230;2022-08-21T07:28:41;1.90;;;1.80;;
8893;SDS011;4483;48.622;9.230;2022-08-21T07:31:09;2.35;;;2.15;;
8893;SDS011;4483;48.622;9.230;2022-08-21T07:33:39;1.88;;;1.73;;
8893;SDS011;4483;48.622;9.230;2022-08-21T07:36:06;1.52;;;1.42;;
8893;SDS011;4483;48.622;9.230;2022-08-21T07:38:35;2.25;;;1.98;;
8893;SDS011;4483;48.622;9.230;2022-08-21T07:41:03;1.85;;;1.75;;
8893;SDS011;4483;48.622;9.230;2022-08-21T07:43:36;7.18;;;2.08;;
8893;SDS011;4483;48.622;9.230;2022-08-21T07:46:03;4.97;;;2.17;;
8893;SDS011;4483;48.622;9.230;2022-08-21T07:48:30;2.67;;;2.03;;
8893;SDS011;4483;48.622;9.230;2022-08-21T07:50:57;3.30;;;1.70;;
8893;SDS011;4483;48.622;9.230;2022-08-21T07:53:24;3.35;;;2.08;;
8893;SDS011;4483;48.622;9.230;2022-08-21T07:55:52;3.85;;;1.90;;
8893;SDS011;4483;48.622;9.230;2022-08-21T07:58:22;4.05;;;2.05;;
8893;SDS011;4483;48.622;9.230;2022-08-21T08:00:49;4.40;;;2.28;;
8893;SDS011;4483;48.622;9.230;2022-08-21T08:03:16;3.08;;;2.15;;
8893;SDS011;4483;48.622;9.230;2022-08-21T08:05:43;5.35;;;2.70;;
8893;SDS011;4483;48.622;9.230;2022-08-21T08:08:10;7.90;;;2.60;;
8893;SDS011;4483;48.622;9.230;2022-08-21T08:10:37;5.03;;;2.90;;
8893;SDS011;4483;48.622;9.230;2022-08-21T08:13:06;5.78;;;2.65;;
8893;SDS011;4483;48.622;9.230;2022-08-21T08:15:32;4.68;;;2.38;;
8893;SDS011;4483;48.622;9.230;2022-08-21T08:18:00;4.60;;;2.50;;
8893;SDS011;4483;48.622;9.230;2022-08-21T08:20:26;3.72;;;2.40;;
8893;SDS011;4483;48.622;9.230;2022-08-21T08:22:54;4.07;;;2.63;;
8893;SDS011;4483;48.622;9.230;2022-08-21T08:25:25;4.68;;;2.55;;
8893;SDS011;4483;48.622;9.230;2022-08-21T08:27:53;3.13;;;2.45;;
8893;SDS011;4483;48.622;9.230;2022-08-21T08:30:21;3.75;;;2.42;;
8893;SDS011;4483;48.622;9.230;2022-08-21T08:32:49;4.45;;;2.72;;
8893;SDS011;4483;48.622;9.230;2022-08-21T08:35:16;3.83;;;2.55;;
8893;SDS011;4483;48.622;9.230;2022-08-21T08:37:43;6.18;;;2.42;;
8893;SDS011;4483;48.622;9.230;2022-08-21T08:40:11;4.30;;;2.60;;
8893;SDS011;4483;48.622;9.230;2022-08-21T08:42:40;3.70;;;2.35;;
8893;SDS011;4483;48.622;9.230;2022-08-21T08:45:08;5.15;;;2.40;;
8893;SDS011;4483;48.622;9.230;2022-08-21T08:47:39;4.78;;;2.38;;
8893;SDS011;4483;48.622;9.230;2022-08-21T08:50:11;3.33;;;2.42;;
8893;SDS011;4483;48.622;9.230;2022-08-21T08:52:43;3.30;;;2.03;;
8893;SDS011;4483;48.622;9.230;2022-08-21T08:55:17;5.10;;;3.20;;
8893;SDS011;4483;48.622;9.230;2022-08-21T08:57:48;2.95;;;2.60;;
8893;SDS011;4483;48.622;9.230;2022-08-21T09:00:19;3.75;;;2.67;;
8893;SDS011;4483;48.622;9.230;2022-08-21T09:02:48;4.10;;;2.47;;
8893;SDS011;4483;48.622;9.230;2022-08-21T09:05:20;4.68;;;2.50;;
8893;SDS011;4483;48.622;9.230;2022-08-21T09:07:52;4.82;;;2.65;;
8893;SDS011;4483;48.622;9.230;2022-08-21T09:10:30;3.30;;;2.47;;
8893;SDS011;4483;48.622;9.230;2022-08-21T09:13:07;3.65;;;2.38;;
8893;SDS011;4483;48.622;9.230;2022-08-21T09:15:46;8.25;;;2.90;;
8893;SDS011;4483;48.622;9.230;2022-08-21T09:18:31;2.70;;;2.50;;
8893;SDS011;4483;48.622;9.230;2022-08-21T09:21:18;4.32;;;2.47;;
8893;SDS011;4483;48.622;9.230;2022-08-21T09:23:52;3.65;;;2.33;;
8893;SDS011;4483;48.622;9.230;2022-08-21T09:26:25;3.42;;;2.50;;
8893;SDS011;4483;48.622;9.230;2022-08-21T09:28:54;3.60;;;2.42;;
8893;SDS011;4483;48.622;9.230;2022-08-21T09:31:24;6.13;;;2.45;;
8893;SDS011;4483;48.622;9.230;2022-08-21T09:34:02;4.30;;;2.75;;
8893;SDS011;4483;48.622;9.230;2022-08-21T09:36:35;5.65;;;2.63;;
8893;SDS011;4483;48.622;9.230;2022-08-21T09:39:05;8.85;;;2.58;;
8893;SDS011;4483;48.622;9.230;2022-08-21T09:41:33;4.72;;;2.83;;
8893;SDS011;4483;48.622;9.230;2022-08-21T09:44:01;6.93;;;2.97;;
8893;SDS011;4483;48.622;9.230;2022-08-21T09:46:29;3.50;;;2.72;;
8893;SDS011;4483;48.622;9.230;2022-08-21T09:48:57;2.85;;;2.60;;
8893;SDS011;4483;48.622;9.230;2022-08-21T09:51:28;3.53;;;2.53;;
8893;SDS011;4483;48.622;9.230;2022-08-21T09:53:58;3.22;;;2.78;;
8893;SDS011;4483;48.622;9.230;2022-08-21T09:56:39;7.22;;;2.72;;
8893;SDS011;4483;48.622;9.230;2022-08-21T09:59:34;3.42;;;3.13;;
8893;SDS011;4483;48.622;9.230;2022-08-21T10:02:07;6.55;;;2.85;;
8893;SDS011;4483;48.622;9.230;2022-08-21T10:04:50;11.07;;;3.50;;
8893;SDS011;4483;48.622;9.230;2022-08-21T10:07:22;7.07;;;3.25;;
8893;SDS011;4483;48.622;9.230;2022-08-21T10:09:58;5.22;;;2.90;;
8893;SDS011;4483;48.622;9.230;2022-08-21T10:12:28;7.43;;;3.00;;
8893;SDS011;4483;48.622;9.230;2022-08-21T10:15:01;5.55;;;2.95;;
8893;SDS011;4483;48.622;9.230;2022-08-21T10:17:41;5.22;;;2.80;;
8893;SDS011;4483;48.622;9.230;2022-08-21T10:20:16;3.70;;;2.85;;
8893;SDS011;4483;48.622;9.230;2022-08-21T10:22:51;4.68;;;2.92;;
8893;SDS011;4483;48.622;9.230;2022-08-21T10:25:31;4.25;;;2.63;;
8893;SDS011;4483;48.622;9.230;2022-08-21T10:28:05;4.57;;;2.80;;
8893;SDS011;4483;48.622;9.230;2022-08-21T10:30:38;3.10;;;2.80;;
8893;SDS011;4483;48.622;9.230;2022-08-21T10:33:14;5.18;;;2.78;;
8893;SDS011;4483;48.622;9.230;2022-08-21T10:35:51;4.60;;;2.80;;
8893;SDS011;4483;48.622;9.230;2022-08-21T10:41:36;3.88;;;2.70;;
8893;SDS011;4483;48.622;9.230;2022-08-21T10:44:17;5.05;;;2.88;;
8893;SDS011;4483;48.622;9.230;2022-08-21T10:46:54;6.03;;;2.72;;
8893;SDS011;4483;48.622;9.230;2022-08-21T10:49:30;7.40;;;2.55;;
8893;SDS011;4483;48.622;9.230;2022-08-21T10:52:10;3.53;;;2.15;;
8893;SDS011;4483;48.622;9.230;2022-08-21T10:54:52;3.30;;;2.45;;
8893;SDS011;4483;48.622;9.230;2022-08-21T10:57:29;4.70;;;2.83;;
8893;SDS011;4483;48.622;9.230;2022-08-21T11:00:04;4.45;;;2.60;;
8893;SDS011;4483;48.622;9.230;2022-08-21T11:02:35;4.93;;;2.85;;
8893;SDS011;4483;48.622;9.230;2022-08-21T11:05:07;6.05;;;2.50;;
8893;SDS011;4483;48.622;9.230;2022-08-21T11:07:39;3.67;;;2.50;;
8893;SDS011;4483;48.622;9.230;2022-08-21T11:10:14;5.60;;;2.70;;
8893;SDS011;4483;48.622;9.230;2022-08-21T11:12:46;3.25;;;2.67;;
8893;SDS011;4483;48.622;9.230;2022-08-21T11:15:26;5.68;;;2.70;;
8893;SDS011;4483;48.622;9.230;2022-08-21T11:18:01;3.40;;;2.20;;
8893;SDS011;4483;48.622;9.230;2022-08-21T11:20:38;3.40;;;2.70;;
8893;SDS011;4483;48.622;9.230;2022-08-21T11:23:11;4.43;;;2.35;;
8893;SDS011;4483;48.622;9.230;2022-08-21T11:25:44;2.83;;;2.28;;
8893;SDS011;4483;48.622;9.230;2022-08-21T11:28:16;3.63;;;2.38;;
8893;SDS011;4483;48.622;9.230;2022-08-21T11:30:51;4.43;;;2.50;;
8893;SDS011;4483;48.622;9.230;2022-08-21T11:33:34;2.97;;;2.47;;
8893;SDS011;4483;48.622;9.230;2022-08-21T11:36:15;4.40;;;2.35;;
8893;SDS011;4483;48.622;9.230;2022-08-21T11:38:54;6.13;;;2.88;;
8893;SDS011;4483;48.622;9.230;2022-08-21T11:41:36;4.65;;;2.50;;
8893;SDS011;4483;48.622;9.230;2022-08-21T11:44:09;3.85;;;2.47;;
8893;SDS011;4483;48.622;9.230;2022-08-21T11:46:44;4.85;;;2.45;;
8893;SDS011;4483;48.622;9.230;2022-08-21T11:49:30;5.40;;;2.83;;
8893;SDS011;4483;48.622;9.230;2022-08-21T11:52:08;3.90;;;2.47;;
8893;SDS011;4483;48.622;9.230;2022-08-21T11:54:43;3.75;;;2.50;;
8893;SDS011;4483;48.622;9.230;2022-08-21T11:57:17;2.78;;;2.40;;
8893;SDS011;4483;48.622;9.230;2022-08-21T11:59:47;2.33;;;2.00;;
8893;SDS011;4483;48.622;9.230;2022-08-21T12:02:19;3.58;;;2.10;;
8893;SDS011;4483;48.622;9.230;2022-08-21T12:04:51;5.50;;;2.25;;
8893;SDS011;4483;48.622;9.230;2022-08-21T12:07:29;2.65;;;2.33;;
8893;SDS011;4483;48.622;9.230;2022-08-21T12:09:59;2.38;;;1.98;;
8893;SDS011;4483;48.622;9.230;2022-08-21T12:12:28;2.92;;;2.30;;
8893;SDS011;4483;48.622;9.230;2022-08-21T12:15:14;4.70;;;2.55;;
8893;SDS011;4483;48.622;9.230;2022-08-21T12:17:51;2.80;;;2.40;;
8893;SDS011;4483;48.622;9.230;2022-08-21T12:20:38;2.65;;;2.45;;
8893;SDS011;4483;48.622;9.230;2022-08-21T12:23:16;7.57;;;2.50;;
8893;SDS011;4483;48.622;9.230;2022-08-21T12:25:58;3.13;;;2.28;;
8893;SDS011;4483;48.622;9.230;2022-08-21T12:28:29;2.58;;;2.20;;
8893;SDS011;4483;48.622;9.230;2022-08-21T12:30:57;3.70;;;1.88;;
8893;SDS011;4483;48.622;9.230;2022-08-21T12:33:26;2.30;;;2.10;;
8893;SDS011;4483;48.622;9.230;2022-08-21T12:36:01;2.42;;;2.00;;
8893;SDS011;4483;48.622;9.230;2022-08-21T12:38:32;3.58;;;2.25;;
8893;SDS011;4483;48.622;9.230;2022-08-21T12:41:10;2.20;;;2.00;;
8893;SDS011;4483;48.622;9.230;2022-08-21T12:43:45;3.03;;;2.20;;
8893;SDS011;4483;48.622;9.230;2022-08-21T12:46:17;3.00;;;2.13;;
8893;SDS011;4483;48.622;9.230;2022-08-21T12:48:48;4.03;;;2.50;;
8893;SDS011;4483;48.622;9.230;2022-08-21T12:51:19;4.20;;;2.20;;
8893;SDS011;4483;48.622;9.230;2022-08-21T12:53:52;2.45;;;2.22;;
8893;SDS011;4483;48.622;9.230;2022-08-21T12:56:20;2.30;;;2.10;;
8893;SDS011;4483;48.622;9.230;2022-08-21T12:58:51;2.03;;;1.90;;
8893;SDS011;4483;48.622;9.230;2022-08-21T13:01:20;2.05;;;1.90;;
8893;SDS011;4483;48.622;9.230;2022-08-21T13:03:50;1.77;;;1.67;;
8893;SDS011;4483;48.622;9.230;2022-08-21T13:06:19;2.45;;;2.05;;
8893;SDS011;4483;48.622;9.230;2022-08-21T13:08:48;2.58;;;2.08;;
8893;SDS011;4483;48.622;9.230;2022-08-21T13:11:22;5.65;;;1.75;;
8893;SDS011;4483;48.622;9.230;2022-08-21T13:13:51;2.45;;;2.25;;
8893;SDS011;4483;48.622;9.230;2022-08-21T13:16:20;2.25;;;2.08;;
8893;SDS011;4483;48.622;9.230;2022-08-21T13:18:53;2.65;;;2.10;;
8893;SDS011;4483;48.622;9.230;2022-08-21T13:21:26;2.78;;;2.03;;
8893;SDS011;4483;48.622;9.230;2022-08-21T13:24:06;6.05;;;2.55;;
8893;SDS011;4483;48.622;9.230;2022-08-21T13:26:37;2.42;;;2.22;;
8893;SDS011;4483;48.622;9.230;2022-08-21T13:29:07;2.50;;;1.88;;
8893;SDS011;4483;48.622;9.230;2022-08-21T13:31:37;1.90;;;1.80;;
8893;SDS011;4483;48.622;9.230;2022-08-21T13:34:07;2.10;;;1.90;;
8893;SDS011;4483;48.622;9.230;2022-08-21T13:36:37;2.00;;;1.90;;
8893;SDS011;4483;48.622;9.230;2022-08-21T13:39:08;1.98;;;1.80;;
8893;SDS011;4483;48.622;9.230;2022-08-21T13:41:38;3.58;;;2.05;;
8893;SDS011;4483;48.622;9.230;2022-08-21T13:44:15;4.88;;;2.00;;
8893;SDS011;4483;48.622;9.230;2022-08-21T13:46:45;3.78;;;2.10;;
8893;SDS011;4483;48.622;9.230;2022-08-21T13:49:14;3.72;;;2.00;;
8893;SDS011;4483;48.622;9.230;2022-08-21T13:51:44;1.98;;;1.70;;
8893;SDS011;4483;48.622;9.230;2022-08-21T13:54:21;2.33;;;2.13;;
8893;SDS011;4483;48.622;9.230;2022-08-21T13:56:51;1.88;;;1.70;;
8893;SDS011;4483;48.622;9.230;2022-08-21T13:59:26;2.35;;;2.05;;
8893;SDS011;4483;48.622;9.230;2022-08-21T14:01:54;2.10;;;1.90;;
8893;SDS011;4483;48.622;9.230;2022-08-21T14:04:26;2.40;;;2.08;;
8893;SDS011;4483;48.622;9.230;2022-08-21T14:06:59;2.92;;;2.08;;
8893;SDS011;4483;48.622;9.230;2022-08-21T14:09:28;3.22;;;2.22;;
8893;SDS011;4483;48.622;9.230;2022-08-21T14:11:57;2.55;;;2.22;;
8893;SDS011;4483;48.622;9.230;2022-08-21T14:14:29;2.40;;;2.20;;
8893;SDS011;4483;48.622;9.230;2022-08-21T14:17:02;2.97;;;1.95;;
8893;SDS011;4483;48.622;9.230;2022-08-21T14:19:35;6.45;;;2.35;;
8893;SDS011;4483;48.622;9.230;2022-08-21T14:24:49;5.05;;;2.40;;
8893;SDS011;4483;48.622;9.230;2022-08-21T14:27:16;3.67;;;1.83;;
8893;SDS011;4483;48.622;9.230;2022-08-21T14:29:45;2.13;;;1.70;;
8893;SDS011;4483;48.622;9.230;2022-08-21T14:32:13;2.40;;;2.10;;
8893;SDS011;4483;48.622;9.230;2022-08-21T14:34:42;2.15;;;2.05;;
8893;SDS011;4483;48.622;9.230;2022-08-21T14:37:08;2.42;;;2.22;;
8893;SDS011;4483;48.622;9.230;2022-08-21T14:39:35;2.33;;;2.10;;
8893;SDS011;4483;48.622;9.230;2022-08-21T14:42:02;2.80;;;2.55;;
8893;SDS011;4483;48.622;9.230;2022-08-21T14:44:29;3.50;;;2.30;;
8893;SDS011;4483;48.622;9.230;2022-08-21T14:46:58;2.65;;;2.22;;
8893;SDS011;4483;48.622;9.230;2022-08-21T14:49:26;2.70;;;2.45;;
8893;SDS011;4483;48.622;9.230;2022-08-21T14:51:53;2.50;;;2.20;;
8893;SDS011;4483;48.622;9.230;2022-08-21T14:54:22;3.55;;;2.25;;
8893;SDS011;4483;48.622;9.230;2022-08-21T14:56:49;2.83;;;2.17;;
8893;SDS011;4483;48.622;9.230;2022-08-21T14:59:16;1.88;;;1.77;;
8893;SDS011;4483;48.622;9.230;2022-08-21T15:01:44;6.05;;;2.15;;
8893;SDS011;4483;48.622;9.230;2022-08-21T15:04:12;3.33;;;2.45;;
8893;SDS011;4483;48.622;9.230;2022-08-21T15:06:39;2.63;;;2.40;;
8893;SDS011;4483;48.622;9.230;2022-08-21T15:09:06;2.30;;;2.13;;
8893;SDS011;4483;48.622;9.230;2022-08-21T15:11:33;2.80;;;2.50;;
8893;SDS011;4483;48.622;9.230;2022-08-21T15:14:00;2.42;;;2.20;;
8893;SDS011;4483;48.622;9.230;2022-08-21T15:16:29;5.55;;;2.50;;
8893;SDS011;4483;48.622;9.230;2022-08-21T15:18:57;2.50;;;2.30;;
8893;SDS011;4483;48.622;9.230;2022-08-21T15:21:25;3.15;;;2.15;;
8893;SDS011;4483;48.622;9.230;2022-08-21T15:23:52;2.35;;;2.17;;
8893;SDS011;4483;48.622;9.230;2022-08-21T15:26:20;4.05;;;2.55;;
8893;SDS011;4483;48.622;9.230;2022-08-21T15:28:47;2.63;;;2.40;;
8893;SDS011;4483;48.622;9.230;2022-08-21T15:31:14;2.67;;;2.30;;
8893;SDS011;4483;48.622;9.230;2022-08-21T15:33:41;4.07;;;2.50;;
8893;SDS011;4483;48.622;9.230;2022-08-21T15:36:08;2.47;;;2.25;;